Ovid, New York
Current Conditions -  °F | °C
As of 9:47 PM on Thursday 20 Nov 2014 (Local Time) from KPEO Reporting Station
Light Snow Light Snow  
Wind Chill: 15°   Ceiling: 1100
Heat Index: 23°   Visibility: 1mi
Dew Point: 19°   Wind: 7mph
Humidity: 86%   Direction: NA
Pressure: 29.96"   Gusts: NA
Location:  42.68°N, 76.82°W
Report Text: KPEO 210247Z AUTO VRB06KT 1SM -SN BR FEW005 OVC011 M05/M07 A2996 RMK AO2 P0002 RVRNO
Loading
Personal Weather Stations






























Interactive Weather Map New forecast layout! Learn more

10-Day Weather Forecast

Advertisements
Track Severe Weather on mobile